createdAt,value
2019-06-26T00:01:05.939Z,26
2019-06-26T00:02:35.996Z,26
2019-06-26T00:04:06.079Z,26
2019-06-26T00:05:36.195Z,26
2019-06-26T00:07:06.222Z,26.1
2019-06-26T00:08:36.256Z,26.2
2019-06-26T00:10:37.187Z,26.5
2019-06-26T00:12:07.256Z,26.5
2019-06-26T00:13:37.308Z,26.6
2019-06-26T00:15:07.366Z,26.5
2019-06-26T00:16:37.452Z,26.5
2019-06-26T00:18:07.561Z,26.5
2019-06-26T00:19:37.602Z,26.5
2019-06-26T00:21:07.658Z,26.4
2019-06-26T00:22:37.717Z,26.3
2019-06-26T00:24:07.793Z,26.4
2019-06-26T00:25:37.866Z,26.2
2019-06-26T00:27:07.924Z,25.9
2019-06-26T00:28:37.985Z,25.9
2019-06-26T00:30:08.043Z,25.9
2019-06-26T00:31:38.135Z,25.9
2019-06-26T00:33:08.193Z,26.1
2019-06-26T00:34:38.331Z,26.2
2019-06-26T00:36:08.347Z,26.2
2019-06-26T00:37:38.404Z,26.2
2019-06-26T00:39:08.464Z,26.2
2019-06-26T00:40:38.551Z,26.2
2019-06-26T00:42:08.612Z,26.2
2019-06-26T00:43:42.490Z,26.2
2019-06-26T00:45:08.747Z,26
2019-06-26T00:46:38.833Z,25.8
2019-06-26T00:48:08.891Z,25.6
2019-06-26T00:49:38.951Z,25.5
2019-06-26T00:51:09.069Z,25.4
2019-06-26T00:52:39.151Z,25.4
2019-06-26T00:54:09.204Z,25.3
2019-06-26T00:55:39.265Z,25.4
2019-06-26T00:57:09.345Z,25.3
2019-06-26T00:58:39.404Z,25.2
2019-06-26T01:00:09.472Z,25.2
2019-06-26T01:01:39.601Z,25.1
2019-06-26T01:03:09.619Z,25.1
2019-06-26T01:04:39.669Z,24.9
2019-06-26T01:06:09.726Z,25
2019-06-26T01:07:39.810Z,24.9
2019-06-26T01:09:09.872Z,24.9
2019-06-26T01:10:39.932Z,25
2019-06-26T01:12:10.015Z,25.2
2019-06-26T01:13:40.080Z,25.2
2019-06-26T01:15:10.138Z,25.1
2019-06-26T01:16:40.224Z,25.2
2019-06-26T01:18:10.282Z,25.3
2019-06-26T01:19:40.341Z,25.2
2019-06-26T01:21:10.399Z,25
2019-06-26T01:22:40.481Z,25
2019-06-26T01:24:10.549Z,24.9
2019-06-26T01:25:40.597Z,24.8
2019-06-26T01:27:10.683Z,24.7
2019-06-26T01:28:40.741Z,24.6
2019-06-26T01:30:10.799Z,24.4
2019-06-26T01:31:40.882Z,24.2
2019-06-26T01:33:10.938Z,24
2019-06-26T01:34:41.003Z,23.8
2019-06-26T01:36:11.058Z,23.5
2019-06-26T01:37:41.144Z,23.4
2019-06-26T01:39:11.205Z,23.4
2019-06-26T01:40:41.268Z,23.4
2019-06-26T01:42:11.349Z,23.6
2019-06-26T01:43:41.413Z,23.6
2019-06-26T01:45:11.465Z,23.6
2019-06-26T01:46:41.524Z,23.5
2019-06-26T01:48:11.607Z,23.5
2019-06-26T01:49:41.670Z,23.6
2019-06-26T01:51:11.726Z,23.7
2019-06-26T01:52:41.810Z,23.7
2019-06-26T01:54:11.868Z,23.5
2019-06-26T01:55:41.927Z,23.3
2019-06-26T01:57:12.275Z,23.3
2019-06-26T01:58:42.333Z,23.3
2019-06-26T02:00:12.392Z,23.5
2019-06-26T02:01:42.451Z,23.5
2019-06-26T02:03:12.535Z,23.5
2019-06-26T02:04:42.596Z,23.4
2019-06-26T02:06:12.655Z,23.4
2019-06-26T02:07:42.757Z,23.2
2019-06-26T02:09:12.815Z,23.2
2019-06-26T02:10:42.877Z,23.4
2019-06-26T02:12:12.946Z,23.5
2019-06-26T02:13:43.016Z,23.6
2019-06-26T02:15:13.089Z,23.6
2019-06-26T02:16:43.138Z,23.5
2019-06-26T02:18:13.226Z,23.2
2019-06-26T02:19:43.278Z,23
2019-06-26T02:21:13.337Z,22.9
2019-06-26T02:22:43.420Z,22.9
2019-06-26T02:24:13.480Z,22.9
2019-06-26T02:25:43.538Z,23
2019-06-26T02:27:13.595Z,22.9
2019-06-26T02:28:43.701Z,23
2019-06-26T02:30:13.783Z,23.1
2019-06-26T02:31:43.817Z,23.2
2019-06-26T02:33:13.876Z,23.2
2019-06-26T02:34:43.915Z,23.3
2019-06-26T02:36:44.800Z,23.4
2019-06-26T02:38:14.886Z,23.5
2019-06-26T02:39:44.944Z,23.5
2019-06-26T02:41:15.004Z,23.5
2019-06-26T02:42:45.062Z,23.4
2019-06-26T02:44:15.155Z,23.4
2019-06-26T02:45:45.207Z,23.2
2019-06-26T02:47:19.927Z,23.3
2019-06-26T02:48:45.415Z,23.2
2019-06-26T02:50:15.406Z,23.2
2019-06-26T02:51:45.464Z,23.2
2019-06-26T02:53:15.554Z,23.4
2019-06-26T02:54:45.618Z,23.5
2019-06-26T02:56:15.674Z,23.6
2019-06-26T02:57:45.730Z,23.6
2019-06-26T02:59:15.819Z,23.6
2019-06-26T03:00:45.877Z,23.8
2019-06-26T03:02:15.930Z,23.9
2019-06-26T03:03:46.014Z,24
2019-06-26T03:05:16.071Z,24
2019-06-26T03:06:46.130Z,24
2019-06-26T03:08:16.187Z,24
2019-06-26T03:09:46.270Z,23.9
2019-06-26T03:11:16.328Z,23.7
2019-06-26T03:12:46.387Z,23.6
2019-06-26T03:14:16.471Z,23.4
2019-06-26T03:15:49.508Z,23.2
2019-06-26T03:17:16.588Z,23
2019-06-26T03:18:46.674Z,22.8
2019-06-26T03:20:16.735Z,22.8
2019-06-26T03:21:46.793Z,22.7
2019-06-26T03:23:16.852Z,22.7
2019-06-26T03:24:46.935Z,22.8
2019-06-26T03:26:16.998Z,22.9
2019-06-26T03:27:47.052Z,22.8
2019-06-26T03:29:17.136Z,22.7
2019-06-26T03:30:47.196Z,22.8
2019-06-26T03:32:17.253Z,22.8
2019-06-26T03:33:47.312Z,22.8
2019-06-26T03:35:17.393Z,22.9
2019-06-26T03:36:47.451Z,22.9
2019-06-26T03:38:17.509Z,22.9
2019-06-26T03:39:47.596Z,22.9
2019-06-26T03:41:17.652Z,22.9
2019-06-26T03:42:47.746Z,23
2019-06-26T03:44:17.769Z,23
2019-06-26T03:45:47.868Z,23.1
2019-06-26T03:47:17.922Z,23.1
2019-06-26T03:48:47.980Z,23.1
2019-06-26T03:50:18.064Z,23.1
2019-06-26T03:51:48.123Z,23.1
2019-06-26T03:53:18.181Z,23.2
2019-06-26T03:54:48.266Z,23.2
2019-06-26T03:56:18.323Z,23.1
2019-06-26T03:57:48.422Z,23.1
2019-06-26T03:59:18.439Z,23
2019-06-26T04:00:48.522Z,23
2019-06-26T04:02:18.580Z,23
2019-06-26T04:03:48.644Z,22.8
2019-06-26T04:05:18.726Z,22.7
2019-06-26T04:06:48.784Z,22.7
2019-06-26T04:08:18.842Z,22.7
2019-06-26T04:09:48.934Z,22.7
2019-06-26T04:11:18.989Z,22.6
2019-06-26T04:12:49.046Z,22.3
2019-06-26T04:14:19.110Z,22.3
2019-06-26T04:15:50.984Z,22.3
2019-06-26T04:17:19.295Z,22.3
2019-06-26T04:18:49.355Z,22.2
2019-06-26T04:20:19.440Z,22.4
2019-06-26T04:21:49.497Z,22.4
2019-06-26T04:23:19.556Z,22.5
2019-06-26T04:24:49.614Z,22.4
2019-06-26T04:26:19.702Z,22.5
2019-06-26T04:27:49.754Z,22.4
2019-06-26T04:29:19.812Z,22.3
2019-06-26T04:30:49.902Z,22.4
2019-06-26T04:32:19.959Z,22.5
2019-06-26T04:33:50.079Z,22.7
2019-06-26T04:35:20.102Z,22.8
2019-06-26T04:36:50.160Z,22.9
2019-06-26T04:38:20.226Z,23.5
2019-06-26T04:39:50.280Z,23.4
2019-06-26T04:41:20.363Z,23.2
2019-06-26T04:42:50.475Z,23.2
2019-06-26T04:44:20.499Z,23.3
2019-06-26T04:45:57.934Z,23.6
2019-06-26T04:48:50.971Z,23.9
2019-06-26T04:50:20.764Z,23.7
2019-06-26T04:51:50.857Z,23.8
2019-06-26T04:53:20.915Z,23.8
2019-06-26T04:54:50.995Z,23.7
2019-06-26T04:56:21.102Z,23.5
2019-06-26T04:57:51.137Z,23.5
2019-06-26T04:59:21.170Z,23.5
2019-06-26T05:01:22.088Z,23.8
2019-06-26T05:02:52.147Z,23.8
2019-06-26T05:04:22.203Z,24
2019-06-26T05:05:52.287Z,24.4
2019-06-26T05:07:22.347Z,24.5
2019-06-26T05:08:52.408Z,24.7
2019-06-26T05:10:22.463Z,24.8
2019-06-26T05:11:52.545Z,24.8
2019-06-26T05:13:22.606Z,24.9
2019-06-26T05:14:52.666Z,24.8
2019-06-26T05:16:22.746Z,24.8
2019-06-26T05:17:52.805Z,24.8
2019-06-26T05:19:22.861Z,25
2019-06-26T05:20:52.922Z,25
2019-06-26T05:22:23.005Z,24.9
2019-06-26T05:23:53.061Z,25
2019-06-26T05:25:23.119Z,25
2019-06-26T05:26:53.204Z,25
2019-06-26T05:28:23.259Z,25.1
2019-06-26T05:29:54.469Z,25
2019-06-26T05:31:23.403Z,25.1
2019-06-26T05:32:53.462Z,25.2
2019-06-26T05:34:23.518Z,25.1
2019-06-26T05:35:53.576Z,25.2
2019-06-26T05:37:23.659Z,24.8
2019-06-26T05:38:53.718Z,24.8
2019-06-26T05:40:23.774Z,24.8
2019-06-26T05:41:53.859Z,24.9
2019-06-26T05:43:23.920Z,25
2019-06-26T05:44:53.983Z,24.7
2019-06-26T05:46:30.849Z,24.4
2019-06-26T05:47:54.120Z,24.4
2019-06-26T05:49:24.175Z,24.4
2019-06-26T05:50:54.238Z,24.5
2019-06-26T05:52:24.321Z,24.8
2019-06-26T05:53:54.375Z,25
2019-06-26T05:55:24.439Z,25
2019-06-26T05:56:54.523Z,25
2019-06-26T05:58:24.579Z,25
2019-06-26T05:59:54.644Z,25.2
2019-06-26T06:01:24.700Z,25.4
2019-06-26T06:02:54.782Z,25.7
2019-06-26T06:04:24.838Z,26
2019-06-26T06:05:54.897Z,25.9
2019-06-26T06:07:24.985Z,26
2019-06-26T06:08:55.044Z,25.9
2019-06-26T06:10:25.101Z,26
2019-06-26T06:11:55.159Z,25.9
2019-06-26T06:13:25.239Z,25.9
2019-06-26T06:14:55.297Z,26.1
2019-06-26T06:16:25.356Z,26.5
2019-06-26T06:17:55.437Z,26.7
2019-06-26T06:19:25.513Z,26.6
2019-06-26T06:20:55.554Z,26.7
2019-06-26T06:22:27.506Z,26.6
2019-06-26T06:23:55.695Z,26.7
2019-06-26T06:25:25.753Z,26.8
2019-06-26T06:26:55.809Z,26.9
2019-06-26T06:28:25.893Z,26.9
2019-06-26T06:29:55.956Z,26.9
2019-06-26T06:31:26.040Z,26.9
2019-06-26T06:32:56.203Z,26.9
2019-06-26T06:34:26.273Z,26.8
2019-06-26T06:35:56.333Z,26.8
2019-06-26T06:37:26.394Z,26.8
2019-06-26T06:38:56.477Z,26.6
2019-06-26T06:40:26.531Z,26.7
2019-06-26T06:41:56.588Z,26.9
2019-06-26T06:43:26.671Z,26.7
2019-06-26T06:44:56.730Z,26.6
2019-06-26T06:46:26.789Z,26.6
2019-06-26T06:47:56.872Z,26.7
2019-06-26T06:49:26.930Z,26.6
2019-06-26T06:50:56.994Z,26.9
2019-06-26T06:52:27.051Z,26.9
2019-06-26T06:53:57.140Z,26.9
2019-06-26T06:55:27.191Z,26.9
2019-06-26T06:56:57.248Z,27.1
2019-06-26T06:58:30.128Z,27.3
2019-06-26T06:59:57.394Z,27.4
2019-06-26T07:01:27.447Z,27.3
2019-06-26T07:02:57.504Z,27.3
2019-06-26T07:04:27.589Z,27.2
2019-06-26T07:05:57.648Z,27.5
2019-06-26T07:07:27.704Z,27.8
2019-06-26T07:08:57.788Z,28.1
2019-06-26T07:10:27.848Z,28.3
2019-06-26T07:11:57.904Z,28.3
2019-06-26T07:13:27.988Z,28.2
2019-06-26T07:14:58.056Z,28.2
2019-06-26T07:16:28.130Z,28.3
2019-06-26T07:17:58.174Z,28.4
2019-06-26T07:19:28.323Z,28.5
2019-06-26T07:20:58.368Z,29
2019-06-26T07:22:28.408Z,28.5
2019-06-26T07:23:58.465Z,28.6
2019-06-26T07:25:59.354Z,28.9
2019-06-26T07:27:29.424Z,29
2019-06-26T07:28:59.495Z,29
2019-06-26T07:30:29.553Z,29
2019-06-26T07:31:59.613Z,28.9
2019-06-26T07:33:29.671Z,28.9
2019-06-26T07:34:59.754Z,28.7
2019-06-26T07:36:29.817Z,28.6
2019-06-26T07:38:00.271Z,29
2019-06-26T07:39:29.953Z,29.3
2019-06-26T07:41:00.059Z,29.4
2019-06-26T07:42:30.070Z,29.5
2019-06-26T07:44:00.159Z,29.5
2019-06-26T07:45:30.220Z,29.6
2019-06-26T07:47:00.413Z,29.5
2019-06-26T07:48:30.360Z,29.4
2019-06-26T07:50:00.430Z,29.4
2019-06-26T07:51:30.487Z,29.6
2019-06-26T07:53:00.545Z,29.7
2019-06-26T07:54:30.628Z,29.6
2019-06-26T07:56:00.685Z,29.5
2019-06-26T07:57:30.747Z,29.6
2019-06-26T07:59:00.808Z,29.5
2019-06-26T08:00:31.761Z,29.6
2019-06-26T08:02:00.941Z,29.7
2019-06-26T08:03:31.004Z,29.7
2019-06-26T08:05:01.089Z,29.5
2019-06-26T08:06:31.150Z,29.7
2019-06-26T08:08:01.204Z,29.9
2019-06-26T08:09:31.287Z,29.7
2019-06-26T08:11:01.348Z,29.6
2019-06-26T08:12:31.403Z,29.4
2019-06-26T08:14:01.466Z,29.5
2019-06-26T08:15:31.554Z,29.7
2019-06-26T08:17:01.609Z,29.7
2019-06-26T08:18:31.666Z,29.8
2019-06-26T08:20:01.752Z,29.5
2019-06-26T08:21:31.809Z,29.6
2019-06-26T08:23:01.872Z,29.9
2019-06-26T08:24:31.952Z,30.3
2019-06-26T08:26:02.061Z,30.3
2019-06-26T08:27:32.068Z,30.4
2019-06-26T08:29:02.125Z,30.5
2019-06-26T08:30:32.218Z,30.7
2019-06-26T08:32:02.277Z,31
2019-06-26T08:33:32.336Z,30.5
2019-06-26T08:35:02.424Z,30.7
2019-06-26T08:36:32.482Z,30.8
2019-06-26T08:38:10.129Z,30.9
2019-06-26T08:39:32.596Z,31.1
2019-06-26T08:41:02.684Z,31.1
2019-06-26T08:42:32.739Z,31.1
2019-06-26T08:44:02.800Z,31.1
2019-06-26T08:45:32.880Z,31.3
2019-06-26T08:47:02.938Z,31.2
2019-06-26T08:48:39.321Z,31.1
2019-06-26T08:50:03.097Z,31.1
2019-06-26T08:51:33.137Z,30.7
2019-06-26T08:53:03.194Z,30.3
2019-06-26T08:54:33.252Z,30.6
2019-06-26T08:56:03.352Z,30.7
2019-06-26T08:57:33.393Z,30.5
2019-06-26T08:59:03.453Z,30.5
2019-06-26T09:00:33.561Z,31
2019-06-26T09:02:03.596Z,31
2019-06-26T09:03:33.662Z,31.1
2019-06-26T09:05:03.713Z,31.3
2019-06-26T09:06:33.798Z,31.1
2019-06-26T09:08:03.934Z,30.9
2019-06-26T09:09:33.949Z,30.9
2019-06-26T09:11:04.029Z,30.9
2019-06-26T09:12:34.087Z,31.3
2019-06-26T09:14:04.148Z,31.6
2019-06-26T09:15:34.233Z,32
2019-06-26T09:17:04.293Z,32.2
2019-06-26T09:18:35.997Z,32
2019-06-26T09:20:04.409Z,32.1
2019-06-26T09:21:34.494Z,31.8
2019-06-26T09:23:04.572Z,31.3
2019-06-26T09:24:34.627Z,31.4
2019-06-26T09:26:04.713Z,31.4
2019-06-26T09:27:34.773Z,31.7
2019-06-26T09:29:04.829Z,31.9
2019-06-26T09:30:34.886Z,31.8
2019-06-26T09:32:04.972Z,31.9
2019-06-26T09:33:35.031Z,31.9
2019-06-26T09:35:05.087Z,32
2019-06-26T09:36:35.171Z,31.8
2019-06-26T09:38:05.244Z,31.8
2019-06-26T09:39:35.296Z,32.2
2019-06-26T09:41:05.380Z,32.5
2019-06-26T09:42:35.438Z,32.5
2019-06-26T09:44:05.519Z,32.5
2019-06-26T09:45:35.600Z,32.6
2019-06-26T09:47:05.660Z,32.6
2019-06-26T09:48:51.323Z,32.6
2019-06-26T09:50:36.585Z,32.1
2019-06-26T09:52:06.669Z,32.1
2019-06-26T09:53:46.285Z,32.2
2019-06-26T09:55:06.798Z,32.4
2019-06-26T09:56:36.869Z,32.4
2019-06-26T09:58:06.926Z,32.3
2019-06-26T09:59:36.986Z,32.7
2019-06-26T10:01:07.070Z,32.9
2019-06-26T10:02:37.127Z,32.6
2019-06-26T10:04:07.194Z,32.7
2019-06-26T10:05:37.252Z,32.9
2019-06-26T10:07:07.335Z,33
2019-06-26T10:08:37.392Z,33
2019-06-26T10:10:07.454Z,33
2019-06-26T10:11:37.536Z,33
2019-06-26T10:13:07.592Z,33.3
2019-06-26T10:14:46.913Z,33.2
2019-06-26T10:16:07.744Z,33.2
2019-06-26T10:17:37.797Z,32.9
2019-06-26T10:19:10.377Z,32.8
2019-06-26T10:20:37.926Z,32.9
2019-06-26T10:22:08.000Z,33.2
2019-06-26T10:23:38.070Z,33.4
2019-06-26T10:25:11.194Z,33.6
2019-06-26T10:26:38.201Z,33.2
2019-06-26T10:28:08.290Z,33
2019-06-26T10:29:38.320Z,32.7
2019-06-26T10:31:08.375Z,32.5
2019-06-26T10:32:38.468Z,32.4
2019-06-26T10:34:10.093Z,32.8
2019-06-26T10:35:38.577Z,33
2019-06-26T10:37:08.661Z,33.2
2019-06-26T10:38:38.722Z,33.4
2019-06-26T10:40:08.777Z,33.2
2019-06-26T10:41:38.835Z,33
2019-06-26T10:43:08.921Z,32.7
2019-06-26T10:44:38.978Z,32.8
2019-06-26T10:46:09.038Z,32.8
2019-06-26T10:47:39.919Z,33
2019-06-26T10:49:22.659Z,33
2019-06-26T10:50:48.534Z,33.2
2019-06-26T10:52:09.405Z,33.4
2019-06-26T10:53:39.415Z,33.8
2019-06-26T10:55:09.475Z,33.5
2019-06-26T10:56:39.536Z,32.9
2019-06-26T10:58:09.618Z,33.2
2019-06-26T10:59:39.678Z,33.6
2019-06-26T11:01:09.731Z,34
2019-06-26T11:02:39.819Z,33.5
2019-06-26T11:04:09.879Z,33.2
2019-06-26T11:05:39.943Z,33.3
2019-06-26T11:07:09.997Z,33
2019-06-26T11:08:40.082Z,33.1
2019-06-26T11:10:10.138Z,33
2019-06-26T11:11:40.203Z,33.2
2019-06-26T11:13:10.282Z,33.6
2019-06-26T11:14:40.337Z,33.3
2019-06-26T11:16:10.408Z,32.6
2019-06-26T11:17:40.486Z,32.8
2019-06-26T11:19:10.545Z,32.8
2019-06-26T11:20:40.610Z,33.2
2019-06-26T11:22:10.667Z,33.4
2019-06-26T11:23:40.751Z,33.2
2019-06-26T11:25:10.816Z,33.4
2019-06-26T11:26:40.870Z,33.8
2019-06-26T11:28:10.951Z,33.9
2019-06-26T11:29:41.010Z,34
2019-06-26T11:31:11.069Z,33.8
2019-06-26T11:32:41.186Z,34
2019-06-26T11:34:11.216Z,33.9
2019-06-26T11:35:41.279Z,33.8
2019-06-26T11:37:11.352Z,34
2019-06-26T11:38:41.422Z,34
2019-06-26T11:40:11.481Z,34.1
2019-06-26T11:41:41.826Z,34.4
2019-06-26T11:43:11.649Z,34.7
2019-06-26T11:44:41.707Z,35
2019-06-26T11:46:11.766Z,35.1
2019-06-26T11:47:44.677Z,35.3
2019-06-26T11:49:11.905Z,35.4
2019-06-26T11:50:41.965Z,35.3
2019-06-26T11:52:12.023Z,34.7
2019-06-26T11:53:42.106Z,34.6
2019-06-26T11:55:12.166Z,34.1
2019-06-26T11:56:42.236Z,33.9
2019-06-26T11:58:12.309Z,33.6
2019-06-26T11:59:42.367Z,33.7
2019-06-26T12:01:12.427Z,33.9
2019-06-26T12:02:42.494Z,34
2019-06-26T12:04:12.606Z,34.2
2019-06-26T12:05:42.699Z,34.1
2019-06-26T12:07:12.745Z,34.4
2019-06-26T12:08:42.826Z,34.4
2019-06-26T12:10:13.097Z,34.6
2019-06-26T12:11:42.967Z,34.8
2019-06-26T12:13:13.022Z,34.7
2019-06-26T12:15:13.921Z,34.8
2019-06-26T12:16:44.039Z,34.8
2019-06-26T12:18:14.038Z,34.8
2019-06-26T12:19:44.102Z,34.8
2019-06-26T12:21:14.203Z,34.3
2019-06-26T12:22:44.243Z,34.8
2019-06-26T12:24:14.351Z,35.2
2019-06-26T12:25:44.384Z,35.4
2019-06-26T12:27:14.441Z,35.7
2019-06-26T12:28:44.509Z,35.8
2019-06-26T12:30:14.558Z,36.1
2019-06-26T12:31:44.639Z,36.1
2019-06-26T12:33:14.703Z,35.6
2019-06-26T12:34:45.286Z,35
2019-06-26T12:36:14.842Z,34.6
2019-06-26T12:37:44.902Z,34.3
2019-06-26T12:39:14.969Z,34.4
2019-06-26T12:40:45.050Z,34.5
2019-06-26T12:42:15.118Z,34.8
2019-06-26T12:43:45.182Z,34.8
2019-06-26T12:45:15.232Z,34.7
2019-06-26T12:46:45.314Z,34.8
2019-06-26T12:48:16.425Z,35
2019-06-26T12:49:45.431Z,35.1
2019-06-26T12:51:15.514Z,34.5
2019-06-26T12:52:45.778Z,34.3
2019-06-26T12:54:15.632Z,34.5
2019-06-26T12:55:45.716Z,34.8
2019-06-26T12:57:15.773Z,35
2019-06-26T12:58:45.878Z,34.8
2019-06-26T13:00:15.891Z,34.8
2019-06-26T13:01:45.974Z,35.1
2019-06-26T13:03:16.034Z,35.3
2019-06-26T13:04:46.090Z,35.4
2019-06-26T13:06:16.172Z,35.7
2019-06-26T13:07:46.230Z,35.8
2019-06-26T13:09:16.287Z,35.8
2019-06-26T13:10:49.917Z,35.4
2019-06-26T13:12:16.432Z,35.5
2019-06-26T13:14:01.321Z,35.8
2019-06-26T13:15:16.567Z,35.8
2019-06-26T13:16:46.629Z,35.9
2019-06-26T13:18:16.686Z,35.7
2019-06-26T13:19:46.755Z,35.4
2019-06-26T13:21:16.847Z,35.2
2019-06-26T13:22:46.887Z,34.9
2019-06-26T13:24:16.944Z,35.1
2019-06-26T13:25:47.002Z,35.3
2019-06-26T13:27:17.084Z,35.4
2019-06-26T13:28:47.146Z,35.6
2019-06-26T13:30:17.223Z,35.2
2019-06-26T13:31:47.368Z,34.7
2019-06-26T13:33:17.342Z,34.7
2019-06-26T13:34:47.407Z,35.1
2019-06-26T13:36:17.459Z,35.4
2019-06-26T13:37:47.541Z,35.4
2019-06-26T13:39:17.604Z,35.1
2019-06-26T13:40:47.675Z,35.1
2019-06-26T13:42:17.766Z,35.3
2019-06-26T13:43:47.869Z,35.5
2019-06-26T13:45:17.879Z,35.4
2019-06-26T13:46:47.940Z,35.4
2019-06-26T13:48:18.035Z,35.5
2019-06-26T13:49:48.085Z,35.6
2019-06-26T13:51:21.311Z,35
2019-06-26T13:52:48.224Z,34.8
2019-06-26T13:54:18.282Z,35
2019-06-26T13:55:48.339Z,35.2
2019-06-26T13:57:18.433Z,35.4
2019-06-26T13:58:48.494Z,35.3
2019-06-26T14:00:18.549Z,35.4
2019-06-26T14:01:48.605Z,35.6
2019-06-26T14:03:18.689Z,35.1
2019-06-26T14:04:48.745Z,35.4
2019-06-26T14:06:18.803Z,35.3
2019-06-26T14:07:48.886Z,35.5
2019-06-26T14:09:18.945Z,35.7
2019-06-26T14:10:49.002Z,36.1
2019-06-26T14:12:19.434Z,36.4
2019-06-26T14:13:49.145Z,36.5
2019-06-26T14:15:19.201Z,36
2019-06-26T14:16:49.262Z,36.3
2019-06-26T14:18:19.346Z,36.5
2019-06-26T14:19:49.403Z,36.6
2019-06-26T14:21:25.330Z,36.5
2019-06-26T14:22:49.543Z,36.4
2019-06-26T14:24:19.606Z,36.4
2019-06-26T14:25:49.663Z,36.5
2019-06-26T14:27:19.719Z,36.3
2019-06-26T14:28:49.804Z,36.6
2019-06-26T14:30:19.864Z,36.6
2019-06-26T14:31:49.922Z,36.6
2019-06-26T14:33:20.026Z,36.8
2019-06-26T14:34:50.158Z,36.7
2019-06-26T14:36:23.221Z,36.4
2019-06-26T14:37:50.216Z,36
2019-06-26T14:39:20.250Z,35.8
2019-06-26T14:41:21.140Z,35.9
2019-06-26T14:42:51.231Z,35.9
2019-06-26T14:44:21.281Z,36.2
2019-06-26T14:45:51.341Z,36.6
2019-06-26T14:47:21.397Z,36.6
2019-06-26T14:48:51.480Z,36.5
2019-06-26T14:50:21.542Z,36.6
2019-06-26T14:51:51.600Z,36.6
2019-06-26T14:53:21.686Z,36.5
2019-06-26T14:54:51.743Z,36.5
2019-06-26T14:56:21.800Z,36.6
2019-06-26T14:57:51.862Z,36.5
2019-06-26T14:59:21.941Z,36.5
2019-06-26T15:00:52.005Z,36.2
2019-06-26T15:02:22.059Z,35.8
2019-06-26T15:03:52.141Z,35.7
2019-06-26T15:05:22.199Z,35.8
2019-06-26T15:06:52.257Z,35.8
2019-06-26T15:08:22.314Z,35.9
2019-06-26T15:09:52.413Z,35.9
2019-06-26T15:11:22.461Z,35.9
2019-06-26T15:12:52.520Z,35.8
2019-06-26T15:14:22.602Z,35.6
2019-06-26T15:15:54.804Z,35.5
2019-06-26T15:17:22.718Z,35.3
2019-06-26T15:18:52.804Z,35.2
2019-06-26T15:20:22.860Z,35.4
2019-06-26T15:21:58.097Z,35.7
2019-06-26T15:23:22.974Z,35.4
2019-06-26T15:24:53.058Z,35.4
2019-06-26T15:26:23.116Z,35.6
2019-06-26T15:27:53.175Z,35.6
2019-06-26T15:29:23.264Z,35.7
2019-06-26T15:30:53.321Z,35.9
2019-06-26T15:32:23.382Z,35.9
2019-06-26T15:33:53.470Z,35.8
2019-06-26T15:35:23.528Z,35.6
2019-06-26T15:36:53.656Z,35.4
2019-06-26T15:38:23.650Z,35.1
2019-06-26T15:39:53.735Z,35.1
2019-06-26T15:41:23.793Z,35.2
2019-06-26T15:42:53.857Z,35.2
2019-06-26T15:44:23.950Z,35.2
2019-06-26T15:45:54.009Z,35.5
2019-06-26T15:47:24.074Z,35.8
2019-06-26T15:48:54.128Z,36
2019-06-26T15:50:24.212Z,35.9
2019-06-26T15:51:54.271Z,35.8
2019-06-26T15:53:24.332Z,35.8
2019-06-26T15:54:54.463Z,35.8
2019-06-26T15:56:24.473Z,35.4
2019-06-26T15:57:54.532Z,35.5
2019-06-26T16:00:54.676Z,35.8
2019-06-26T16:02:24.733Z,35.7
2019-06-26T16:03:54.793Z,35.5
2019-06-26T16:05:24.879Z,35.7
2019-06-26T16:06:54.939Z,35.7
2019-06-26T16:08:24.994Z,35.8
2019-06-26T16:09:55.076Z,35.9
2019-06-26T16:11:25.134Z,35.5
2019-06-26T16:12:55.196Z,35.4
2019-06-26T16:14:25.257Z,35.1
2019-06-26T16:15:55.341Z,35.1
2019-06-26T16:17:25.409Z,35.2
2019-06-26T16:18:55.477Z,35.4
2019-06-26T16:20:25.551Z,35.1
2019-06-26T16:21:55.611Z,35.2
2019-06-26T16:23:25.668Z,35.2
2019-06-26T16:24:55.768Z,35.2
2019-06-26T16:26:25.817Z,35.2
2019-06-26T16:28:04.991Z,35.3
2019-06-26T16:29:25.927Z,35.4
2019-06-26T16:30:56.011Z,35.5
2019-06-26T16:32:26.070Z,35.3
2019-06-26T16:33:56.132Z,35.2
2019-06-26T16:35:26.215Z,35.2
2019-06-26T16:36:56.273Z,35.3
2019-06-26T16:38:26.331Z,35.4
2019-06-26T16:39:56.390Z,35.1
2019-06-26T16:41:26.473Z,35.1
2019-06-26T16:42:56.531Z,35.1
2019-06-26T16:44:26.589Z,35.2
2019-06-26T16:45:56.672Z,35.4
2019-06-26T16:47:26.730Z,35.4
2019-06-26T16:48:56.788Z,35.3
2019-06-26T16:50:26.848Z,35.4
2019-06-26T16:51:56.931Z,35.4
2019-06-26T16:53:26.990Z,35.4
2019-06-26T16:54:57.049Z,35.5
2019-06-26T16:56:27.143Z,35.7
2019-06-26T16:57:57.191Z,35.8
2019-06-26T16:59:27.269Z,35.7
2019-06-26T17:00:57.545Z,35.5
2019-06-26T17:02:27.578Z,35.4
2019-06-26T17:03:57.613Z,35.2
2019-06-26T17:05:27.649Z,35.3
2019-06-26T17:07:28.566Z,34.9
2019-06-26T17:08:58.626Z,34.8
2019-06-26T17:10:28.685Z,34.9
2019-06-26T17:11:58.770Z,35
2019-06-26T17:13:28.911Z,35
2019-06-26T17:14:58.892Z,35.2
2019-06-26T17:16:28.977Z,35.3
2019-06-26T17:17:59.053Z,35.5
2019-06-26T17:19:29.094Z,35.7
2019-06-26T17:20:59.153Z,35.6
2019-06-26T17:22:29.242Z,35.4
2019-06-26T17:23:59.300Z,35.3
2019-06-26T17:25:29.363Z,35.2
2019-06-26T17:26:59.609Z,35.1
2019-06-26T17:28:29.508Z,34.9
2019-06-26T17:29:59.564Z,34.8
2019-06-26T17:31:29.624Z,34.6
2019-06-26T17:32:59.710Z,34.6
2019-06-26T17:34:29.769Z,34.6
2019-06-26T17:35:59.825Z,34.7
2019-06-26T17:37:29.906Z,34.8
2019-06-26T17:38:59.970Z,34.8
2019-06-26T17:40:30.030Z,34.7
2019-06-26T17:42:00.140Z,34.7
2019-06-26T17:43:30.189Z,34.5
2019-06-26T17:45:00.247Z,34.5
2019-06-26T17:46:30.304Z,34.2
2019-06-26T17:48:00.401Z,34.1
2019-06-26T17:49:30.451Z,34.1
2019-06-26T17:51:00.511Z,34.2
2019-06-26T17:52:33.506Z,34.5
2019-06-26T17:54:00.651Z,34.5
2019-06-26T17:55:30.708Z,34.5
2019-06-26T17:57:00.769Z,34.5
2019-06-26T17:58:30.853Z,34.2
2019-06-26T18:00:00.915Z,34.3
2019-06-26T18:01:30.968Z,34.4
2019-06-26T18:03:01.053Z,34.4
2019-06-26T18:04:31.110Z,34.4
2019-06-26T18:06:01.169Z,34.4
2019-06-26T18:07:31.261Z,34.5
2019-06-26T18:09:01.327Z,34.5
2019-06-26T18:10:31.370Z,34.5
2019-06-26T18:12:01.426Z,34.3
2019-06-26T18:13:31.511Z,34.3
2019-06-26T18:15:01.567Z,34.1
2019-06-26T18:16:31.655Z,33.9
2019-06-26T18:18:01.714Z,33.8
2019-06-26T18:19:31.773Z,33.8
2019-06-26T18:21:01.836Z,33.7
2019-06-26T18:22:31.926Z,33.6
2019-06-26T18:24:01.987Z,33.8
2019-06-26T18:25:32.045Z,33.8
2019-06-26T18:27:02.102Z,33.6
2019-06-26T18:28:32.192Z,33.5
2019-06-26T18:30:02.263Z,33.3
2019-06-26T18:31:32.305Z,33.2
2019-06-26T18:33:02.393Z,33
2019-06-26T18:34:32.450Z,33.1
2019-06-26T18:36:02.507Z,33.2
2019-06-26T18:37:32.580Z,33.4
2019-06-26T18:39:02.658Z,33.5
2019-06-26T18:40:32.728Z,33.5
2019-06-26T18:42:02.776Z,33.5
2019-06-26T18:43:32.862Z,33.6
2019-06-26T18:45:02.923Z,33.5
2019-06-26T18:46:32.982Z,33.6
2019-06-26T18:48:03.042Z,33.5
2019-06-26T18:49:33.127Z,33.5
2019-06-26T18:51:03.184Z,33.4
2019-06-26T18:52:33.245Z,33.4
2019-06-26T18:54:03.327Z,33.4
2019-06-26T18:55:33.389Z,33.2
2019-06-26T18:57:03.442Z,33
2019-06-26T18:58:33.567Z,33
2019-06-26T19:00:03.812Z,33
2019-06-26T19:01:33.687Z,33
2019-06-26T19:03:03.747Z,32.9
2019-06-26T19:04:33.845Z,32.9
2019-06-26T19:06:03.888Z,32.9
2019-06-26T19:07:33.945Z,32.9
2019-06-26T19:09:04.030Z,32.8
2019-06-26T19:10:34.088Z,32.8
2019-06-26T19:12:04.145Z,32.9
2019-06-26T19:13:34.204Z,32.7
2019-06-26T19:15:04.289Z,32.6
2019-06-26T19:16:36.349Z,32.6
2019-06-26T19:18:04.406Z,32.4
2019-06-26T19:19:34.487Z,32.3
2019-06-26T19:21:04.572Z,32.4
2019-06-26T19:22:34.605Z,32.3
2019-06-26T19:24:09.930Z,32.3
2019-06-26T19:25:34.799Z,32.2
2019-06-26T19:27:07.488Z,32.1
2019-06-26T19:28:34.899Z,32
2019-06-26T19:30:04.961Z,31.9
2019-06-26T19:32:05.853Z,31.7
2019-06-26T19:33:35.926Z,31.7
2019-06-26T19:35:18.286Z,31.6
2019-06-26T19:36:49.385Z,31.4
2019-06-26T19:38:06.115Z,31.4
2019-06-26T19:39:36.203Z,31.4
2019-06-26T19:41:08.567Z,31.4
2019-06-26T19:42:36.315Z,31.3
2019-06-26T19:44:08.778Z,31.2
2019-06-26T19:45:36.456Z,31.1
2019-06-26T19:47:06.519Z,31.1
2019-06-26T19:48:36.574Z,31.1
2019-06-26T19:50:06.658Z,31
2019-06-26T19:51:36.716Z,30.9
2019-06-26T19:53:06.775Z,30.9
2019-06-26T19:54:36.834Z,30.8
2019-06-26T19:56:06.917Z,30.8
2019-06-26T19:57:37.020Z,30.8
2019-06-26T19:59:07.034Z,30.8
2019-06-26T20:00:37.118Z,30.8
2019-06-26T20:02:07.202Z,30.8
2019-06-26T20:03:37.262Z,30.7
2019-06-26T20:05:07.323Z,30.7
2019-06-26T20:06:37.427Z,30.6
2019-06-26T20:08:07.490Z,30.6
2019-06-26T20:09:37.546Z,30.6
2019-06-26T20:11:07.603Z,30.5
2019-06-26T20:12:37.688Z,30.5
2019-06-26T20:14:07.797Z,30.4
2019-06-26T20:15:37.808Z,30.4